sensor_id;sensor_type;location;lat;lon;timestamp;P1;durP1;ratioP1;P2;durP2;ratioP2
22066;SDS011;72821;49.814;19.034;2023-10-19T00:02:39;31.48;;;17.60;;
22066;SDS011;72821;49.814;19.034;2023-10-19T00:07:41;35.10;;;19.20;;
22066;SDS011;72821;49.814;19.034;2023-10-19T00:12:44;34.35;;;18.00;;
22066;SDS011;72821;49.814;19.034;2023-10-19T00:22:55;33.53;;;17.25;;
22066;SDS011;72821;49.814;19.034;2023-10-19T00:27:58;35.53;;;17.33;;
22066;SDS011;72821;49.814;19.034;2023-10-19T00:33:02;31.55;;;16.40;;
22066;SDS011;72821;49.814;19.034;2023-10-19T00:38:05;33.20;;;16.25;;
22066;SDS011;72821;49.814;19.034;2023-10-19T00:43:29;28.77;;;14.93;;
22066;SDS011;72821;49.814;19.034;2023-10-19T00:48:35;26.40;;;13.88;;
22066;SDS011;72821;49.814;19.034;2023-10-19T00:53:41;23.27;;;11.68;;
22066;SDS011;72821;49.814;19.034;2023-10-19T00:58:43;24.85;;;12.45;;
22066;SDS011;72821;49.814;19.034;2023-10-19T01:03:54;25.23;;;13.52;;
22066;SDS011;72821;49.814;19.034;2023-10-19T01:09:00;24.35;;;11.98;;
22066;SDS011;72821;49.814;19.034;2023-10-19T01:14:17;23.95;;;13.30;;
22066;SDS011;72821;49.814;19.034;2023-10-19T01:19:21;24.27;;;13.13;;
22066;SDS011;72821;49.814;19.034;2023-10-19T01:24:24;24.55;;;12.65;;
22066;SDS011;72821;49.814;19.034;2023-10-19T01:29:43;24.73;;;12.57;;
22066;SDS011;72821;49.814;19.034;2023-10-19T01:34:45;22.52;;;11.85;;
22066;SDS011;72821;49.814;19.034;2023-10-19T01:39:47;25.60;;;12.02;;
22066;SDS011;72821;49.814;19.034;2023-10-19T01:44:50;20.40;;;11.23;;
22066;SDS011;72821;49.814;19.034;2023-10-19T01:49:52;22.38;;;10.40;;
22066;SDS011;72821;49.814;19.034;2023-10-19T01:54:54;20.77;;;10.75;;
22066;SDS011;72821;49.814;19.034;2023-10-19T02:00:01;23.20;;;10.87;;
22066;SDS011;72821;49.814;19.034;2023-10-19T02:05:13;16.60;;;9.05;;
22066;SDS011;72821;49.814;19.034;2023-10-19T02:10:17;21.50;;;10.65;;
22066;SDS011;72821;49.814;19.034;2023-10-19T02:15:20;23.75;;;11.55;;
22066;SDS011;72821;49.814;19.034;2023-10-19T02:20:23;22.65;;;10.98;;
22066;SDS011;72821;49.814;19.034;2023-10-19T02:30:44;25.52;;;13.98;;
22066;SDS011;72821;49.814;19.034;2023-10-19T02:35:46;33.35;;;15.23;;
22066;SDS011;72821;49.814;19.034;2023-10-19T02:40:49;27.17;;;13.60;;
22066;SDS011;72821;49.814;19.034;2023-10-19T02:45:52;25.35;;;13.23;;
22066;SDS011;72821;49.814;19.034;2023-10-19T02:50:55;23.70;;;12.88;;
22066;SDS011;72821;49.814;19.034;2023-10-19T02:55:57;25.98;;;13.63;;
22066;SDS011;72821;49.814;19.034;2023-10-19T03:01:08;23.77;;;13.00;;
22066;SDS011;72821;49.814;19.034;2023-10-19T03:06:14;26.05;;;14.35;;
22066;SDS011;72821;49.814;19.034;2023-10-19T03:11:16;27.35;;;14.43;;
22066;SDS011;72821;49.814;19.034;2023-10-19T03:16:18;29.20;;;15.10;;
22066;SDS011;72821;49.814;19.034;2023-10-19T03:21:22;28.00;;;15.40;;
22066;SDS011;72821;49.814;19.034;2023-10-19T03:26:34;27.80;;;15.25;;
22066;SDS011;72821;49.814;19.034;2023-10-19T03:31:40;27.15;;;14.50;;
22066;SDS011;72821;49.814;19.034;2023-10-19T03:36:45;28.67;;;14.43;;
22066;SDS011;72821;49.814;19.034;2023-10-19T03:41:47;23.80;;;13.15;;
22066;SDS011;72821;49.814;19.034;2023-10-19T03:46:53;25.95;;;13.43;;
22066;SDS011;72821;49.814;19.034;2023-10-19T03:51:56;18.90;;;10.80;;
22066;SDS011;72821;49.814;19.034;2023-10-19T03:57:22;19.98;;;10.57;;
22066;SDS011;72821;49.814;19.034;2023-10-19T04:02:25;18.83;;;9.95;;
22066;SDS011;72821;49.814;19.034;2023-10-19T04:07:31;18.90;;;9.05;;
22066;SDS011;72821;49.814;19.034;2023-10-19T04:12:37;16.38;;;9.05;;
22066;SDS011;72821;49.814;19.034;2023-10-19T04:17:45;21.38;;;10.32;;
22066;SDS011;72821;49.814;19.034;2023-10-19T04:22:49;20.17;;;10.77;;
22066;SDS011;72821;49.814;19.034;2023-10-19T04:27:52;17.95;;;9.45;;
22066;SDS011;72821;49.814;19.034;2023-10-19T04:32:57;18.13;;;9.40;;
22066;SDS011;72821;49.814;19.034;2023-10-19T04:38:00;16.27;;;9.23;;
22066;SDS011;72821;49.814;19.034;2023-10-19T04:43:03;16.23;;;9.23;;
22066;SDS011;72821;49.814;19.034;2023-10-19T04:48:07;22.20;;;10.63;;
22066;SDS011;72821;49.814;19.034;2023-10-19T04:53:09;16.92;;;9.80;;
22066;SDS011;72821;49.814;19.034;2023-10-19T04:58:11;18.08;;;10.02;;
22066;SDS011;72821;49.814;19.034;2023-10-19T05:03:13;18.13;;;10.00;;
22066;SDS011;72821;49.814;19.034;2023-10-19T05:08:20;17.77;;;9.50;;
22066;SDS011;72821;49.814;19.034;2023-10-19T05:13:26;18.85;;;9.60;;
22066;SDS011;72821;49.814;19.034;2023-10-19T05:18:29;19.90;;;9.95;;
22066;SDS011;72821;49.814;19.034;2023-10-19T05:23:31;16.05;;;9.57;;
22066;SDS011;72821;49.814;19.034;2023-10-19T05:28:33;16.92;;;10.20;;
22066;SDS011;72821;49.814;19.034;2023-10-19T05:33:35;19.63;;;9.88;;
22066;SDS011;72821;49.814;19.034;2023-10-19T05:38:37;17.45;;;10.18;;
22066;SDS011;72821;49.814;19.034;2023-10-19T05:43:39;17.92;;;9.35;;
22066;SDS011;72821;49.814;19.034;2023-10-19T05:48:44;14.18;;;7.70;;
22066;SDS011;72821;49.814;19.034;2023-10-19T05:53:47;13.88;;;7.30;;
22066;SDS011;72821;49.814;19.034;2023-10-19T05:58:50;22.20;;;12.05;;
22066;SDS011;72821;49.814;19.034;2023-10-19T06:03:52;20.88;;;10.98;;
22066;SDS011;72821;49.814;19.034;2023-10-19T06:08:55;19.25;;;9.05;;
22066;SDS011;72821;49.814;19.034;2023-10-19T06:13:58;12.85;;;7.35;;
22066;SDS011;72821;49.814;19.034;2023-10-19T06:19:01;12.77;;;6.68;;
22066;SDS011;72821;49.814;19.034;2023-10-19T06:24:04;12.52;;;6.85;;
22066;SDS011;72821;49.814;19.034;2023-10-19T06:29:08;11.15;;;6.45;;
22066;SDS011;72821;49.814;19.034;2023-10-19T06:34:10;12.88;;;7.85;;
22066;SDS011;72821;49.814;19.034;2023-10-19T06:39:12;13.05;;;6.20;;
22066;SDS011;72821;49.814;19.034;2023-10-19T06:44:17;11.60;;;6.18;;
22066;SDS011;72821;49.814;19.034;2023-10-19T06:49:20;10.20;;;6.13;;
22066;SDS011;72821;49.814;19.034;2023-10-19T06:54:23;9.43;;;6.07;;
22066;SDS011;72821;49.814;19.034;2023-10-19T06:59:25;9.55;;;5.88;;
22066;SDS011;72821;49.814;19.034;2023-10-19T07:04:28;10.55;;;7.57;;
22066;SDS011;72821;49.814;19.034;2023-10-19T07:09:31;13.65;;;8.85;;
22066;SDS011;72821;49.814;19.034;2023-10-19T07:14:34;17.48;;;9.82;;
22066;SDS011;72821;49.814;19.034;2023-10-19T07:19:36;18.02;;;10.57;;
22066;SDS011;72821;49.814;19.034;2023-10-19T07:24:39;21.08;;;10.52;;
22066;SDS011;72821;49.814;19.034;2023-10-19T07:29:41;16.40;;;9.82;;
22066;SDS011;72821;49.814;19.034;2023-10-19T07:34:44;20.38;;;12.02;;
22066;SDS011;72821;49.814;19.034;2023-10-19T07:39:47;21.05;;;11.55;;
22066;SDS011;72821;49.814;19.034;2023-10-19T07:44:49;16.70;;;10.50;;
22066;SDS011;72821;49.814;19.034;2023-10-19T07:49:51;15.77;;;9.48;;
22066;SDS011;72821;49.814;19.034;2023-10-19T07:54:56;18.00;;;10.43;;
22066;SDS011;72821;49.814;19.034;2023-10-19T07:59:59;18.55;;;12.27;;
22066;SDS011;72821;49.814;19.034;2023-10-19T08:05:05;21.38;;;12.50;;
22066;SDS011;72821;49.814;19.034;2023-10-19T08:10:09;21.85;;;12.50;;
22066;SDS011;72821;49.814;19.034;2023-10-19T08:15:12;20.27;;;12.48;;
22066;SDS011;72821;49.814;19.034;2023-10-19T08:20:17;23.42;;;12.25;;
22066;SDS011;72821;49.814;19.034;2023-10-19T08:25:25;25.77;;;12.77;;
22066;SDS011;72821;49.814;19.034;2023-10-19T08:30:51;25.48;;;14.88;;
22066;SDS011;72821;49.814;19.034;2023-10-19T08:36:00;25.63;;;14.35;;
22066;SDS011;72821;49.814;19.034;2023-10-19T08:41:02;20.48;;;12.98;;
22066;SDS011;72821;49.814;19.034;2023-10-19T08:46:05;28.00;;;14.52;;
22066;SDS011;72821;49.814;19.034;2023-10-19T08:51:11;24.58;;;13.75;;
22066;SDS011;72821;49.814;19.034;2023-10-19T08:56:13;23.38;;;14.05;;
22066;SDS011;72821;49.814;19.034;2023-10-19T09:01:18;25.05;;;14.70;;
22066;SDS011;72821;49.814;19.034;2023-10-19T09:06:22;22.63;;;13.40;;
22066;SDS011;72821;49.814;19.034;2023-10-19T09:11:24;20.73;;;13.13;;
22066;SDS011;72821;49.814;19.034;2023-10-19T09:16:26;21.42;;;12.40;;
22066;SDS011;72821;49.814;19.034;2023-10-19T09:21:29;17.58;;;12.10;;
22066;SDS011;72821;49.814;19.034;2023-10-19T09:26:31;21.50;;;12.15;;
22066;SDS011;72821;49.814;19.034;2023-10-19T09:31:33;20.63;;;12.82;;
22066;SDS011;72821;49.814;19.034;2023-10-19T09:36:37;22.00;;;12.38;;
22066;SDS011;72821;49.814;19.034;2023-10-19T09:41:39;20.63;;;11.93;;
22066;SDS011;72821;49.814;19.034;2023-10-19T09:46:42;20.73;;;11.77;;
22066;SDS011;72821;49.814;19.034;2023-10-19T09:51:47;19.70;;;11.70;;
22066;SDS011;72821;49.814;19.034;2023-10-19T09:57:10;18.92;;;11.02;;
22066;SDS011;72821;49.814;19.034;2023-10-19T10:02:18;20.52;;;11.90;;
22066;SDS011;72821;49.814;19.034;2023-10-19T10:07:27;18.20;;;11.23;;
22066;SDS011;72821;49.814;19.034;2023-10-19T10:12:42;17.90;;;11.82;;
22066;SDS011;72821;49.814;19.034;2023-10-19T10:17:45;20.02;;;12.00;;
22066;SDS011;72821;49.814;19.034;2023-10-19T10:28:23;22.70;;;13.63;;
22066;SDS011;72821;49.814;19.034;2023-10-19T10:33:45;22.75;;;13.35;;
22066;SDS011;72821;49.814;19.034;2023-10-19T10:38:49;21.02;;;12.75;;
22066;SDS011;72821;49.814;19.034;2023-10-19T10:43:53;20.02;;;13.40;;
22066;SDS011;72821;49.814;19.034;2023-10-19T10:48:56;24.08;;;14.75;;
22066;SDS011;72821;49.814;19.034;2023-10-19T10:53:59;19.00;;;13.38;;
22066;SDS011;72821;49.814;19.034;2023-10-19T10:59:11;21.83;;;13.95;;
22066;SDS011;72821;49.814;19.034;2023-10-19T11:04:14;22.65;;;13.65;;
22066;SDS011;72821;49.814;19.034;2023-10-19T11:09:18;23.10;;;14.05;;
22066;SDS011;72821;49.814;19.034;2023-10-19T11:14:20;18.45;;;12.88;;
22066;SDS011;72821;49.814;19.034;2023-10-19T11:19:37;17.95;;;12.20;;
22066;SDS011;72821;49.814;19.034;2023-10-19T11:24:41;22.17;;;14.13;;
22066;SDS011;72821;49.814;19.034;2023-10-19T11:29:59;13.93;;;8.57;;
22066;SDS011;72821;49.814;19.034;2023-10-19T11:35:08;12.77;;;7.63;;
22066;SDS011;72821;49.814;19.034;2023-10-19T11:40:12;18.73;;;11.48;;
22066;SDS011;72821;49.814;19.034;2023-10-19T11:45:14;21.42;;;14.30;;
22066;SDS011;72821;49.814;19.034;2023-10-19T11:50:17;23.02;;;14.48;;
22066;SDS011;72821;49.814;19.034;2023-10-19T11:55:20;22.20;;;13.52;;
22066;SDS011;72821;49.814;19.034;2023-10-19T12:00:23;16.92;;;9.95;;
22066;SDS011;72821;49.814;19.034;2023-10-19T12:05:35;15.45;;;9.80;;
22066;SDS011;72821;49.814;19.034;2023-10-19T12:10:38;20.15;;;13.20;;
22066;SDS011;72821;49.814;19.034;2023-10-19T12:15:40;19.95;;;13.73;;
22066;SDS011;72821;49.814;19.034;2023-10-19T12:20:43;21.05;;;13.52;;
22066;SDS011;72821;49.814;19.034;2023-10-19T12:25:47;20.23;;;13.20;;
22066;SDS011;72821;49.814;19.034;2023-10-19T12:30:57;18.00;;;11.98;;
22066;SDS011;72821;49.814;19.034;2023-10-19T12:35:59;15.93;;;10.68;;
22066;SDS011;72821;49.814;19.034;2023-10-19T12:41:02;17.08;;;11.35;;
22066;SDS011;72821;49.814;19.034;2023-10-19T12:46:04;20.20;;;13.85;;
22066;SDS011;72821;49.814;19.034;2023-10-19T12:51:10;22.00;;;14.25;;
22066;SDS011;72821;49.814;19.034;2023-10-19T12:56:16;21.65;;;14.25;;
22066;SDS011;72821;49.814;19.034;2023-10-19T13:01:20;22.30;;;13.90;;
22066;SDS011;72821;49.814;19.034;2023-10-19T13:06:23;22.92;;;13.18;;
22066;SDS011;72821;49.814;19.034;2023-10-19T13:11:31;19.88;;;13.20;;
22066;SDS011;72821;49.814;19.034;2023-10-19T13:16:35;23.25;;;13.52;;
22066;SDS011;72821;49.814;19.034;2023-10-19T13:21:37;23.10;;;14.23;;
22066;SDS011;72821;49.814;19.034;2023-10-19T13:26:39;23.45;;;14.40;;
22066;SDS011;72821;49.814;19.034;2023-10-19T13:31:43;23.05;;;14.35;;
22066;SDS011;72821;49.814;19.034;2023-10-19T13:36:51;26.35;;;15.15;;
22066;SDS011;72821;49.814;19.034;2023-10-19T13:41:53;24.08;;;14.65;;
22066;SDS011;72821;49.814;19.034;2023-10-19T13:46:55;25.73;;;16.73;;
22066;SDS011;72821;49.814;19.034;2023-10-19T13:51:57;27.00;;;16.95;;
22066;SDS011;72821;49.814;19.034;2023-10-19T13:56:59;26.88;;;17.67;;
22066;SDS011;72821;49.814;19.034;2023-10-19T14:02:02;25.95;;;16.38;;
22066;SDS011;72821;49.814;19.034;2023-10-19T14:07:04;24.27;;;16.55;;
22066;SDS011;72821;49.814;19.034;2023-10-19T14:12:07;27.60;;;17.42;;
22066;SDS011;72821;49.814;19.034;2023-10-19T14:17:10;24.90;;;16.17;;
22066;SDS011;72821;49.814;19.034;2023-10-19T14:22:12;29.42;;;17.63;;
22066;SDS011;72821;49.814;19.034;2023-10-19T14:27:14;26.98;;;16.83;;
22066;SDS011;72821;49.814;19.034;2023-10-19T14:32:17;27.83;;;16.80;;
22066;SDS011;72821;49.814;19.034;2023-10-19T14:37:20;24.75;;;16.52;;
22066;SDS011;72821;49.814;19.034;2023-10-19T14:42:22;27.80;;;17.00;;
22066;SDS011;72821;49.814;19.034;2023-10-19T14:47:24;51.58;;;26.08;;
22066;SDS011;72821;49.814;19.034;2023-10-19T14:52:26;45.47;;;26.33;;
22066;SDS011;72821;49.814;19.034;2023-10-19T14:57:28;49.10;;;27.13;;
22066;SDS011;72821;49.814;19.034;2023-10-19T15:02:34;48.10;;;27.10;;
22066;SDS011;72821;49.814;19.034;2023-10-19T15:07:37;32.22;;;20.90;;
22066;SDS011;72821;49.814;19.034;2023-10-19T15:12:39;34.47;;;21.55;;
22066;SDS011;72821;49.814;19.034;2023-10-19T15:17:43;34.80;;;22.58;;
22066;SDS011;72821;49.814;19.034;2023-10-19T15:22:46;35.35;;;22.73;;
22066;SDS011;72821;49.814;19.034;2023-10-19T15:27:48;33.45;;;22.75;;
22066;SDS011;72821;49.814;19.034;2023-10-19T15:32:51;33.28;;;22.55;;
22066;SDS011;72821;49.814;19.034;2023-10-19T15:37:55;34.08;;;22.73;;
22066;SDS011;72821;49.814;19.034;2023-10-19T15:42:58;32.72;;;23.08;;
22066;SDS011;72821;49.814;19.034;2023-10-19T15:48:01;35.33;;;22.73;;
22066;SDS011;72821;49.814;19.034;2023-10-19T15:53:04;37.53;;;24.48;;
22066;SDS011;72821;49.814;19.034;2023-10-19T15:58:06;24.90;;;17.63;;
22066;SDS011;72821;49.814;19.034;2023-10-19T16:03:10;13.10;;;9.00;;
22066;SDS011;72821;49.814;19.034;2023-10-19T16:08:14;13.73;;;9.18;;
22066;SDS011;72821;49.814;19.034;2023-10-19T16:13:17;35.60;;;23.00;;
22066;SDS011;72821;49.814;19.034;2023-10-19T16:18:19;39.03;;;23.83;;
22066;SDS011;72821;49.814;19.034;2023-10-19T16:23:21;38.65;;;22.80;;
22066;SDS011;72821;49.814;19.034;2023-10-19T16:28:24;34.08;;;22.35;;
22066;SDS011;72821;49.814;19.034;2023-10-19T16:33:26;38.85;;;24.33;;
22066;SDS011;72821;49.814;19.034;2023-10-19T16:38:28;41.15;;;26.88;;
22066;SDS011;72821;49.814;19.034;2023-10-19T16:43:30;44.47;;;28.35;;
22066;SDS011;72821;49.814;19.034;2023-10-19T16:48:32;45.78;;;28.55;;
22066;SDS011;72821;49.814;19.034;2023-10-19T16:53:38;43.38;;;28.63;;
22066;SDS011;72821;49.814;19.034;2023-10-19T16:58:41;42.90;;;27.98;;
22066;SDS011;72821;49.814;19.034;2023-10-19T17:03:43;44.15;;;27.58;;
22066;SDS011;72821;49.814;19.034;2023-10-19T17:08:46;43.22;;;26.83;;
22066;SDS011;72821;49.814;19.034;2023-10-19T17:13:49;45.53;;;28.40;;
22066;SDS011;72821;49.814;19.034;2023-10-19T17:18:57;44.97;;;28.13;;
22066;SDS011;72821;49.814;19.034;2023-10-19T17:23:59;46.50;;;27.80;;
22066;SDS011;72821;49.814;19.034;2023-10-19T17:29:03;49.63;;;28.50;;
22066;SDS011;72821;49.814;19.034;2023-10-19T17:34:06;49.70;;;30.48;;
22066;SDS011;72821;49.814;19.034;2023-10-19T17:39:08;56.75;;;33.35;;
22066;SDS011;72821;49.814;19.034;2023-10-19T17:44:14;52.60;;;30.50;;
22066;SDS011;72821;49.814;19.034;2023-10-19T17:49:18;54.22;;;31.25;;
22066;SDS011;72821;49.814;19.034;2023-10-19T17:54:23;51.83;;;30.58;;
22066;SDS011;72821;49.814;19.034;2023-10-19T17:59:25;52.97;;;31.67;;
22066;SDS011;72821;49.814;19.034;2023-10-19T18:04:29;53.20;;;31.83;;
22066;SDS011;72821;49.814;19.034;2023-10-19T18:09:32;51.40;;;32.80;;
22066;SDS011;72821;49.814;19.034;2023-10-19T18:14:34;55.58;;;32.75;;
22066;SDS011;72821;49.814;19.034;2023-10-19T18:19:39;53.92;;;33.10;;
22066;SDS011;72821;49.814;19.034;2023-10-19T18:24:41;58.45;;;34.17;;
22066;SDS011;72821;49.814;19.034;2023-10-19T18:29:45;57.30;;;33.60;;
22066;SDS011;72821;49.814;19.034;2023-10-19T18:34:48;58.17;;;34.20;;
22066;SDS011;72821;49.814;19.034;2023-10-19T18:39:50;52.67;;;32.92;;
22066;SDS011;72821;49.814;19.034;2023-10-19T18:44:52;56.60;;;33.20;;
22066;SDS011;72821;49.814;19.034;2023-10-19T18:49:56;51.22;;;32.45;;
22066;SDS011;72821;49.814;19.034;2023-10-19T18:54:59;56.15;;;33.38;;
22066;SDS011;72821;49.814;19.034;2023-10-19T19:00:02;52.97;;;32.47;;
22066;SDS011;72821;49.814;19.034;2023-10-19T19:05:04;54.00;;;32.75;;
22066;SDS011;72821;49.814;19.034;2023-10-19T19:10:07;50.33;;;31.35;;
22066;SDS011;72821;49.814;19.034;2023-10-19T19:15:09;51.38;;;30.90;;
22066;SDS011;72821;49.814;19.034;2023-10-19T19:20:13;50.10;;;30.35;;
22066;SDS011;72821;49.814;19.034;2023-10-19T19:25:22;47.05;;;27.38;;
22066;SDS011;72821;49.814;19.034;2023-10-19T19:30:25;42.58;;;27.33;;
22066;SDS011;72821;49.814;19.034;2023-10-19T19:35:28;45.65;;;28.45;;
22066;SDS011;72821;49.814;19.034;2023-10-19T19:40:31;45.78;;;28.55;;
22066;SDS011;72821;49.814;19.034;2023-10-19T19:45:34;50.17;;;29.42;;
22066;SDS011;72821;49.814;19.034;2023-10-19T19:50:44;43.50;;;29.00;;
22066;SDS011;72821;49.814;19.034;2023-10-19T19:55:46;50.38;;;30.55;;
22066;SDS011;72821;49.814;19.034;2023-10-19T20:00:51;44.10;;;28.67;;
22066;SDS011;72821;49.814;19.034;2023-10-19T20:05:57;51.00;;;30.52;;
22066;SDS011;72821;49.814;19.034;2023-10-19T20:11:00;46.45;;;30.13;;
22066;SDS011;72821;49.814;19.034;2023-10-19T20:16:03;48.35;;;30.42;;
22066;SDS011;72821;49.814;19.034;2023-10-19T20:21:05;58.60;;;34.05;;
22066;SDS011;72821;49.814;19.034;2023-10-19T20:26:07;54.13;;;32.13;;
22066;SDS011;72821;49.814;19.034;2023-10-19T20:31:10;53.88;;;33.28;;
22066;SDS011;72821;49.814;19.034;2023-10-19T20:36:12;55.97;;;33.65;;
22066;SDS011;72821;49.814;19.034;2023-10-19T20:41:17;57.20;;;34.55;;
22066;SDS011;72821;49.814;19.034;2023-10-19T20:46:20;50.70;;;31.33;;
22066;SDS011;72821;49.814;19.034;2023-10-19T20:51:23;53.05;;;33.13;;
22066;SDS011;72821;49.814;19.034;2023-10-19T20:56:25;54.67;;;33.83;;
22066;SDS011;72821;49.814;19.034;2023-10-19T21:01:27;55.20;;;34.13;;
22066;SDS011;72821;49.814;19.034;2023-10-19T21:06:30;51.88;;;32.20;;
22066;SDS011;72821;49.814;19.034;2023-10-19T21:11:33;57.05;;;34.78;;
22066;SDS011;72821;49.814;19.034;2023-10-19T21:16:36;60.42;;;35.08;;
22066;SDS011;72821;49.814;19.034;2023-10-19T21:21:38;59.50;;;34.67;;
22066;SDS011;72821;49.814;19.034;2023-10-19T21:26:42;60.05;;;32.50;;
22066;SDS011;72821;49.814;19.034;2023-10-19T21:31:44;61.78;;;33.90;;
22066;SDS011;72821;49.814;19.034;2023-10-19T21:36:46;55.30;;;32.13;;
22066;SDS011;72821;49.814;19.034;2023-10-19T21:41:48;53.60;;;31.08;;
22066;SDS011;72821;49.814;19.034;2023-10-19T21:46:51;46.35;;;25.48;;
22066;SDS011;72821;49.814;19.034;2023-10-19T21:51:54;28.20;;;16.45;;
22066;SDS011;72821;49.814;19.034;2023-10-19T21:57:04;20.02;;;13.00;;
22066;SDS011;72821;49.814;19.034;2023-10-19T22:02:07;15.52;;;10.00;;
22066;SDS011;72821;49.814;19.034;2023-10-19T22:07:09;13.52;;;8.70;;
22066;SDS011;72821;49.814;19.034;2023-10-19T22:12:12;11.15;;;7.50;;
22066;SDS011;72821;49.814;19.034;2023-10-19T22:17:18;10.95;;;6.40;;
22066;SDS011;72821;49.814;19.034;2023-10-19T22:22:20;11.93;;;7.00;;
22066;SDS011;72821;49.814;19.034;2023-10-19T22:27:22;9.00;;;5.57;;
22066;SDS011;72821;49.814;19.034;2023-10-19T22:32:27;12.15;;;5.82;;
22066;SDS011;72821;49.814;19.034;2023-10-19T22:37:31;9.57;;;5.13;;
22066;SDS011;72821;49.814;19.034;2023-10-19T22:42:36;6.97;;;4.40;;
22066;SDS011;72821;49.814;19.034;2023-10-19T22:47:39;6.38;;;4.28;;
22066;SDS011;72821;49.814;19.034;2023-10-19T22:52:45;5.45;;;4.03;;
22066;SDS011;72821;49.814;19.034;2023-10-19T22:57:47;5.82;;;3.60;;
22066;SDS011;72821;49.814;19.034;2023-10-19T23:02:53;6.43;;;3.38;;
22066;SDS011;72821;49.814;19.034;2023-10-19T23:07:56;6.00;;;3.83;;
22066;SDS011;72821;49.814;19.034;2023-10-19T23:12:58;7.65;;;4.50;;
22066;SDS011;72821;49.814;19.034;2023-10-19T23:18:02;6.85;;;4.20;;
22066;SDS011;72821;49.814;19.034;2023-10-19T23:23:08;5.60;;;3.80;;
22066;SDS011;72821;49.814;19.034;2023-10-19T23:28:13;5.63;;;3.90;;
22066;SDS011;72821;49.814;19.034;2023-10-19T23:33:16;6.40;;;3.72;;
22066;SDS011;72821;49.814;19.034;2023-10-19T23:38:20;5.95;;;4.00;;
22066;SDS011;72821;49.814;19.034;2023-10-19T23:43:22;4.72;;;2.58;;
22066;SDS011;72821;49.814;19.034;2023-10-19T23:48:26;4.13;;;2.67;;
22066;SDS011;72821;49.814;19.034;2023-10-19T23:53:28;5.20;;;3.17;;
22066;SDS011;72821;49.814;19.034;2023-10-19T23:58:30;4.70;;;2.90;;
